Loggieville, Canada
Current Conditions -  °F | °C
As of 4:00 AM on Sunday 26 Oct 2014 (Local Time) from CZBF Reporting Station
Haze Haze  
Wind Chill: 39°   Ceiling: 800
Heat Index: 39°   Visibility: 3mi
Dew Point: 37°   Wind: 2mph
Humidity: 93%   Direction: NA
Pressure: 29.47"   Gusts: NA
Location:  47.07°N, 65.38°W
Report Text: CZBF 260700Z VRB02KT 3SM BR OVC008 04/03 A2947 RMK SC8 SLP981
Loading
Personal Weather Stations






























Interactive Weather Map
Tropical Storm Tracking
New forecast layout! Learn more

10-Day Weather Forecast

Advertisements
Track Severe Weather on mobile